Time;durP1;ratioP1;P1;durP2;ratioP2;P2;SDS_P1;SDS_P2;PMS_P1;PMS_P2;Temp;Humidity;BMP_temperature;BMP_pressure;BME280_temperature;BME280_humidity;BME280_pressure;Samples;Min_cycle;Max_cycle;Signal;HPM_P1;HPM_P2
2023/12/11 00:00:28;;;;;;;34.03;6.20;;;;;;;;;;5068404;28;20037;-63
2023/12/11 00:02:55;;;;;;;38.28;6.03;;;;;;;;;;5071032;28;20047;-63
2023/12/11 00:05:21;;;;;;;33.63;6.03;;;;;;;;;;5071788;28;20040;-63
2023/12/11 00:07:47;;;;;;;34.38;5.57;;;;;;;;;;5049826;28;20046;-63
2023/12/11 00:10:13;;;;;;;38.20;5.25;;;;;;;;;;5066019;28;20041;-62
2023/12/11 00:12:39;;;;;;;36.47;5.50;;;;;;;;;;5039949;28;20044;-62
2023/12/11 00:15:06;;;;;;;34.13;5.40;;;;;;;;;;5074170;28;20047;-62
2023/12/11 00:17:32;;;;;;;29.10;4.40;;;;;;;;;;5056175;28;20055;-64
2023/12/11 00:19:58;;;;;;;30.30;5.35;;;;;;;;;;5055833;28;20049;-62
2023/12/11 00:22:24;;;;;;;34.40;5.30;;;;;;;;;;5074367;28;20044;-62
2023/12/11 00:24:50;;;;;;;33.25;5.47;;;;;;;;;;5055910;28;20536;-63
2023/12/11 00:27:16;;;;;;;30.50;5.60;;;;;;;;;;5056041;28;20055;-63
2023/12/11 00:29:43;;;;;;;27.52;4.65;;;;;;;;;;5055822;28;20123;-62
2023/12/11 00:32:09;;;;;;;33.45;5.90;;;;;;;;;;5056265;28;20437;-63
2023/12/11 00:34:35;;;;;;;39.33;6.07;;;;;;;;;;5073579;28;20108;-63
2023/12/11 00:37:01;;;;;;;35.53;5.78;;;;;;;;;;5056230;28;20076;-63
2023/12/11 00:39:27;;;;;;;28.52;5.55;;;;;;;;;;5055766;28;20076;-63
2023/12/11 00:41:53;;;;;;;29.00;5.70;;;;;;;;;;5055962;28;20476;-64
2023/12/11 00:44:19;;;;;;;35.03;5.53;;;;;;;;;;5073640;28;20093;-63
2023/12/11 00:46:46;;;;;;;34.65;6.07;;;;;;;;;;5055792;28;20036;-64
2023/12/11 00:49:12;;;;;;;26.23;5.18;;;;;;;;;;5073403;28;20495;-63
2023/12/11 00:51:38;;;;;;;25.67;5.15;;;;;;;;;;5054944;28;20394;-64
2023/12/11 00:54:04;;;;;;;32.95;4.95;;;;;;;;;;5055872;28;20052;-64
2023/12/11 00:56:30;;;;;;;30.13;5.13;;;;;;;;;;5073487;28;20086;-64
2023/12/11 00:58:56;;;;;;;27.27;6.03;;;;;;;;;;5055479;28;20044;-64
2023/12/11 01:01:22;;;;;;;33.22;5.03;;;;;;;;;;5060497;28;20051;-63
2023/12/11 01:03:48;;;;;;;27.60;4.65;;;;;;;;;;5056099;28;20044;-64
2023/12/11 01:06:14;;;;;;;31.92;5.85;;;;;;;;;;5055389;28;20045;-63
2023/12/11 01:08:40;;;;;;;38.67;5.15;;;;;;;;;;5054833;28;20079;-63
2023/12/11 01:11:06;;;;;;;30.50;5.38;;;;;;;;;;5073372;28;20048;-63
2023/12/11 01:13:33;;;;;;;33.55;4.85;;;;;;;;;;5055576;28;20098;-63
2023/12/11 01:15:59;;;;;;;28.83;5.03;;;;;;;;;;5054969;28;20047;-64
2023/12/11 01:18:26;;;;;;;29.25;4.43;;;;;;;;;;5050929;28;20124;-64
2023/12/11 01:20:52;;;;;;;37.15;5.53;;;;;;;;;;5057920;28;20049;-62
2023/12/11 01:23:18;;;;;;;39.28;5.38;;;;;;;;;;5073200;28;20068;-62
2023/12/11 01:25:44;;;;;;;30.75;4.90;;;;;;;;;;5069230;28;20037;-62
2023/12/11 01:28:10;;;;;;;31.25;5.47;;;;;;;;;;5097661;22;20411;-69
2023/12/11 01:30:36;;;;;;;30.60;5.10;;;;;;;;;;5102613;28;20044;-69
2023/12/11 01:33:03;;;;;;;28.77;5.03;;;;;;;;;;5101309;28;20032;-69
2023/12/11 01:35:29;;;;;;;25.60;4.53;;;;;;;;;;5103868;28;20046;-69
2023/12/11 01:37:55;;;;;;;25.52;4.38;;;;;;;;;;5096482;28;20484;-69
2023/12/11 01:40:21;;;;;;;31.58;5.57;;;;;;;;;;5100922;28;20040;-69
2023/12/11 01:42:47;;;;;;;30.35;4.60;;;;;;;;;;5095626;28;20051;-69
2023/12/11 01:45:13;;;;;;;31.40;4.93;;;;;;;;;;5102198;28;20486;-69
2023/12/11 01:47:40;;;;;;;30.20;5.00;;;;;;;;;;5102239;28;20510;-68
2023/12/11 01:50:08;;;;;;;28.17;4.80;;;;;;;;;;5102932;28;20058;-69
2023/12/11 01:52:34;;;;;;;33.35;5.25;;;;;;;;;;5097847;28;20090;-68
2023/12/11 01:55:00;;;;;;;32.55;5.03;;;;;;;;;;5096991;28;20035;-68
2023/12/11 01:57:26;;;;;;;31.50;5.55;;;;;;;;;;5101407;28;20096;-69
2023/12/11 01:59:52;;;;;;;32.85;5.55;;;;;;;;;;5102639;28;20040;-69
2023/12/11 02:02:20;;;;;;;29.67;5.15;;;;;;;;;;5100387;28;20047;-69
2023/12/11 02:04:49;;;;;;;37.67;5.50;;;;;;;;;;5088986;28;20071;-69
2023/12/11 02:07:15;;;;;;;39.30;6.13;;;;;;;;;;5094023;28;20046;-68
2023/12/11 02:09:41;;;;;;;34.22;5.45;;;;;;;;;;5095910;28;20063;-69
2023/12/11 02:12:07;;;;;;;37.13;5.82;;;;;;;;;;5094231;28;20435;-69
2023/12/11 02:14:34;;;;;;;36.63;5.80;;;;;;;;;;5091460;28;20549;-69
2023/12/11 02:17:00;;;;;;;32.65;6.57;;;;;;;;;;5092330;28;20044;-68
2023/12/11 02:19:26;;;;;;;43.78;6.50;;;;;;;;;;5098111;28;20565;-69
2023/12/11 02:21:53;;;;;;;34.35;6.00;;;;;;;;;;5097454;28;20128;-69
2023/12/11 02:24:21;;;;;;;40.22;6.05;;;;;;;;;;5104229;28;20032;-69
2023/12/11 02:26:48;;;;;;;33.38;5.65;;;;;;;;;;5097326;28;20035;-69
2023/12/11 02:29:14;;;;;;;39.55;6.13;;;;;;;;;;5102868;28;20048;-69
2023/12/11 02:31:40;;;;;;;44.13;6.53;;;;;;;;;;5100573;28;20039;-68
2023/12/11 02:34:08;;;;;;;40.22;6.15;;;;;;;;;;5102703;28;20042;-69
2023/12/11 02:36:34;;;;;;;41.13;6.95;;;;;;;;;;5096421;28;20503;-69
2023/12/11 02:39:00;;;;;;;39.15;6.22;;;;;;;;;;5103120;28;20121;-69
2023/12/11 02:41:26;;;;;;;31.58;6.30;;;;;;;;;;5102428;28;20048;-69
2023/12/11 02:43:52;;;;;;;43.17;6.32;;;;;;;;;;5096434;28;20027;-68
2023/12/11 02:46:18;;;;;;;45.78;6.85;;;;;;;;;;5103934;28;20051;-69
2023/12/11 02:48:44;;;;;;;38.13;6.40;;;;;;;;;;5085307;28;20391;-69
2023/12/11 02:51:10;;;;;;;42.40;6.72;;;;;;;;;;5099520;28;20047;-69
2023/12/11 02:53:36;;;;;;;41.65;7.20;;;;;;;;;;5096162;28;20448;-68
2023/12/11 02:56:02;;;;;;;36.22;5.90;;;;;;;;;;5096005;28;20050;-69
2023/12/11 02:58:28;;;;;;;52.78;6.65;;;;;;;;;;5098855;28;20039;-69
2023/12/11 03:00:54;;;;;;;45.25;6.03;;;;;;;;;;5090521;28;20118;-69
2023/12/11 03:03:20;;;;;;;45.75;7.20;;;;;;;;;;5088981;28;20044;-69
2023/12/11 03:05:46;;;;;;;37.90;6.25;;;;;;;;;;5093337;28;20123;-69
2023/12/11 03:08:12;;;;;;;41.72;6.63;;;;;;;;;;5085958;28;20089;-69
2023/12/11 03:10:38;;;;;;;45.95;6.93;;;;;;;;;;5094443;28;20484;-69
2023/12/11 03:13:04;;;;;;;37.85;6.43;;;;;;;;;;5098908;28;20075;-69
2023/12/11 03:15:33;;;;;;;50.22;6.78;;;;;;;;;;5098028;28;20509;-69
2023/12/11 03:17:59;;;;;;;42.63;6.15;;;;;;;;;;5102885;28;20082;-69
2023/12/11 03:20:25;;;;;;;35.20;6.25;;;;;;;;;;5104206;28;20032;-69
2023/12/11 03:22:51;;;;;;;35.15;6.72;;;;;;;;;;5093451;28;20495;-69
2023/12/11 03:25:17;;;;;;;39.05;6.85;;;;;;;;;;5104354;28;20042;-70
2023/12/11 03:27:43;;;;;;;37.58;6.93;;;;;;;;;;5099516;28;20043;-70
2023/12/11 03:30:09;;;;;;;39.40;5.22;;;;;;;;;;5096876;28;20028;-70
2023/12/11 03:32:37;;;;;;;39.55;5.13;;;;;;;;;;5101038;28;20513;-69
2023/12/11 03:35:03;;;;;;;40.85;6.75;;;;;;;;;;5102592;28;20502;-69
2023/12/11 03:37:29;;;;;;;35.85;5.88;;;;;;;;;;5094965;28;20040;-70
2023/12/11 03:39:55;;;;;;;37.03;6.50;;;;;;;;;;5094699;28;20205;-70
2023/12/11 03:42:21;;;;;;;41.05;7.53;;;;;;;;;;5096994;28;20044;-70
2023/12/11 03:44:47;;;;;;;43.10;6.32;;;;;;;;;;5099128;28;20036;-71
2023/12/11 03:47:13;;;;;;;37.15;6.15;;;;;;;;;;5087524;28;20418;-71
2023/12/11 03:49:39;;;;;;;37.40;6.15;;;;;;;;;;5093479;28;20043;-70
2023/12/11 03:52:05;;;;;;;37.63;6.13;;;;;;;;;;5094927;28;20491;-71
2023/12/11 03:54:31;;;;;;;35.22;6.28;;;;;;;;;;5107246;28;20046;-71
2023/12/11 03:56:57;;;;;;;38.88;6.78;;;;;;;;;;5097223;28;20048;-70
2023/12/11 03:59:23;;;;;;;40.80;6.00;;;;;;;;;;5096728;28;20047;-71
2023/12/11 04:01:49;;;;;;;34.20;6.28;;;;;;;;;;5092477;28;20454;-71
2023/12/11 04:04:15;;;;;;;38.15;6.10;;;;;;;;;;5096815;28;20122;-70
2023/12/11 04:06:41;;;;;;;45.63;7.07;;;;;;;;;;5096019;28;20036;-70
2023/12/11 04:09:07;;;;;;;38.65;7.07;;;;;;;;;;5092519;28;20043;-71
2023/12/11 04:11:34;;;;;;;41.05;6.50;;;;;;;;;;5104325;28;20055;-71
2023/12/11 04:14:01;;;;;;;43.42;7.22;;;;;;;;;;5105919;28;20074;-70
2023/12/11 04:16:26;;;;;;;35.72;5.28;;;;;;;;;;5104654;28;20549;-70
2023/12/11 04:18:52;;;;;;;32.72;5.50;;;;;;;;;;5105640;28;20241;-70
2023/12/11 04:21:18;;;;;;;31.60;5.28;;;;;;;;;;5099575;28;20407;-70
2023/12/11 04:23:45;;;;;;;31.83;5.80;;;;;;;;;;5102623;28;20031;-70
2023/12/11 04:26:11;;;;;;;28.25;4.38;;;;;;;;;;5108399;28;20057;-70
2023/12/11 04:28:37;;;;;;;30.75;5.82;;;;;;;;;;5099717;28;20043;-70
2023/12/11 04:31:03;;;;;;;34.85;5.03;;;;;;;;;;5105572;28;20113;-70
2023/12/11 04:33:29;;;;;;;26.58;5.10;;;;;;;;;;5105375;28;20131;-70
2023/12/11 04:35:54;;;;;;;26.20;5.18;;;;;;;;;;5103441;28;20242;-70
2023/12/11 04:38:20;;;;;;;31.90;4.93;;;;;;;;;;5103517;28;20043;-70
2023/12/11 04:40:46;;;;;;;33.53;5.68;;;;;;;;;;5099412;28;20082;-69
2023/12/11 04:43:12;;;;;;;40.47;5.32;;;;;;;;;;5106388;28;20140;-69
2023/12/11 04:45:38;;;;;;;38.33;5.60;;;;;;;;;;5100859;28;20036;-70
2023/12/11 04:48:05;;;;;;;34.47;5.85;;;;;;;;;;5105495;28;20032;-70
2023/12/11 04:50:31;;;;;;;32.80;4.97;;;;;;;;;;5102798;28;20039;-70
2023/12/11 04:52:57;;;;;;;28.40;4.78;;;;;;;;;;5098478;28;20043;-70
2023/12/11 04:55:23;;;;;;;28.77;5.13;;;;;;;;;;5097082;28;20039;-70
2023/12/11 04:57:49;;;;;;;28.27;5.13;;;;;;;;;;5099167;28;20511;-70
2023/12/11 05:00:16;;;;;;;39.20;5.60;;;;;;;;;;5104694;28;20419;-70
2023/12/11 05:02:43;;;;;;;26.30;4.88;;;;;;;;;;5087403;28;20048;-70
2023/12/11 05:05:10;;;;;;;34.95;5.30;;;;;;;;;;5103996;28;20043;-70
2023/12/11 05:07:36;;;;;;;36.38;5.57;;;;;;;;;;5100661;28;20032;-70
2023/12/11 05:10:02;;;;;;;31.05;5.13;;;;;;;;;;5095027;28;20055;-70
2023/12/11 05:12:28;;;;;;;23.13;4.75;;;;;;;;;;5095897;28;20050;-70
2023/12/11 05:14:54;;;;;;;31.38;4.57;;;;;;;;;;5101615;28;20044;-70
2023/12/11 05:17:20;;;;;;;32.33;4.93;;;;;;;;;;5107619;28;20152;-71
2023/12/11 05:19:46;;;;;;;32.83;5.68;;;;;;;;;;5105072;28;20478;-70
2023/12/11 05:22:12;;;;;;;41.65;5.13;;;;;;;;;;5102806;28;20043;-70
2023/12/11 05:24:38;;;;;;;32.80;5.05;;;;;;;;;;5104323;28;20040;-70
2023/12/11 05:27:04;;;;;;;31.25;4.95;;;;;;;;;;5098216;28;20067;-69
2023/12/11 05:29:30;;;;;;;40.45;5.43;;;;;;;;;;5107002;28;20407;-70
2023/12/11 05:31:56;;;;;;;25.73;4.90;;;;;;;;;;5105671;28;20035;-70
2023/12/11 05:34:22;;;;;;;32.33;5.35;;;;;;;;;;5106924;28;20115;-70
2023/12/11 05:36:48;;;;;;;37.50;5.82;;;;;;;;;;5099062;28;20044;-69
2023/12/11 05:39:14;;;;;;;29.88;5.30;;;;;;;;;;5102050;28;20043;-70
2023/12/11 05:41:40;;;;;;;20.52;4.03;;;;;;;;;;5095340;28;20040;-70
2023/12/11 05:44:06;;;;;;;30.17;4.25;;;;;;;;;;5106165;28;20518;-70
2023/12/11 05:46:32;;;;;;;31.80;4.22;;;;;;;;;;5100886;28;20059;-71
2023/12/11 05:48:59;;;;;;;26.50;4.30;;;;;;;;;;5103096;28;20036;-71
2023/12/11 05:51:27;;;;;;;22.00;3.92;;;;;;;;;;5094027;28;20492;-71
2023/12/11 05:53:55;;;;;;;29.02;4.93;;;;;;;;;;5104803;28;20040;-71
2023/12/11 05:56:21;;;;;;;30.33;5.03;;;;;;;;;;5101294;28;20050;-71
2023/12/11 05:58:47;;;;;;;30.08;4.57;;;;;;;;;;5094473;28;20039;-70
2023/12/11 06:01:13;;;;;;;31.15;4.85;;;;;;;;;;5095505;28;20126;-70
2023/12/11 06:03:39;;;;;;;32.13;5.00;;;;;;;;;;5105132;28;20180;-70
2023/12/11 06:06:05;;;;;;;25.20;4.18;;;;;;;;;;5104060;28;20447;-70
2023/12/11 06:08:31;;;;;;;22.92;4.43;;;;;;;;;;5094024;28;20039;-70
2023/12/11 06:10:58;;;;;;;21.83;3.63;;;;;;;;;;5095171;28;20040;-70
2023/12/11 06:13:24;;;;;;;15.95;3.38;;;;;;;;;;5101885;28;20462;-70
2023/12/11 06:15:50;;;;;;;21.98;3.40;;;;;;;;;;5085320;28;20047;-70
2023/12/11 06:18:16;;;;;;;17.80;3.28;;;;;;;;;;5095078;28;20474;-70
2023/12/11 06:20:42;;;;;;;22.40;3.75;;;;;;;;;;5089625;28;20046;-69
2023/12/11 06:23:08;;;;;;;19.98;3.60;;;;;;;;;;5106174;28;20066;-70
2023/12/11 06:25:34;;;;;;;22.05;3.60;;;;;;;;;;5106441;28;20036;-69
2023/12/11 06:28:00;;;;;;;23.42;4.35;;;;;;;;;;5105273;28;20517;-70
2023/12/11 06:30:26;;;;;;;26.90;4.38;;;;;;;;;;5100035;28;20036;-69
2023/12/11 06:32:52;;;;;;;30.30;5.57;;;;;;;;;;5102026;28;20036;-69
2023/12/11 06:35:18;;;;;;;30.45;4.72;;;;;;;;;;5097916;28;20046;-69
2023/12/11 06:37:44;;;;;;;30.02;4.53;;;;;;;;;;5097486;28;20050;-69
2023/12/11 06:40:10;;;;;;;25.40;4.80;;;;;;;;;;5101720;28;20383;-70
2023/12/11 06:42:37;;;;;;;28.83;4.78;;;;;;;;;;5106315;28;20044;-69
2023/12/11 06:45:05;;;;;;;23.98;4.28;;;;;;;;;;5099146;28;20043;-70
2023/12/11 06:47:31;;;;;;;27.67;4.50;;;;;;;;;;5107200;28;20043;-69
2023/12/11 06:49:57;;;;;;;38.83;5.40;;;;;;;;;;5097544;28;20032;-69
2023/12/11 06:52:23;;;;;;;27.33;4.43;;;;;;;;;;5107289;28;20042;-69
2023/12/11 06:54:49;;;;;;;27.95;4.75;;;;;;;;;;5104508;28;20466;-68
2023/12/11 06:57:15;;;;;;;25.90;4.88;;;;;;;;;;5106557;28;20051;-69
2023/12/11 06:59:41;;;;;;;31.52;5.00;;;;;;;;;;5105193;28;20074;-69
2023/12/11 07:02:07;;;;;;;42.22;5.55;;;;;;;;;;5106099;28;20488;-68
2023/12/11 07:04:33;;;;;;;31.17;4.78;;;;;;;;;;5097374;28;20408;-69
2023/12/11 07:06:59;;;;;;;29.48;5.00;;;;;;;;;;5091760;28;20093;-71
2023/12/11 07:09:26;;;;;;;28.42;4.32;;;;;;;;;;5099457;28;20071;-69
2023/12/11 07:11:52;;;;;;;25.83;4.53;;;;;;;;;;5104670;28;20044;-69
2023/12/11 07:14:19;;;;;;;25.35;4.63;;;;;;;;;;5105208;28;20039;-69
2023/12/11 07:16:45;;;;;;;30.40;4.57;;;;;;;;;;5100324;28;20071;-69
2023/12/11 07:19:11;;;;;;;25.60;4.10;;;;;;;;;;5111163;28;20063;-69
2023/12/11 07:21:37;;;;;;;31.38;6.13;;;;;;;;;;5108953;28;20047;-69
2023/12/11 07:24:03;;;;;;;32.47;4.43;;;;;;;;;;5108903;28;20498;-69
2023/12/11 07:26:29;;;;;;;27.27;4.15;;;;;;;;;;5096245;28;20033;-69
2023/12/11 07:28:55;;;;;;;28.05;4.57;;;;;;;;;;5099569;28;20044;-65
2023/12/11 07:31:21;;;;;;;23.95;4.55;;;;;;;;;;5098904;28;20036;-67
2023/12/11 07:33:47;;;;;;;22.15;3.88;;;;;;;;;;5096258;28;20032;-69
2023/12/11 07:36:13;;;;;;;28.52;4.10;;;;;;;;;;5102789;28;20081;-69
2023/12/11 07:38:39;;;;;;;30.15;4.32;;;;;;;;;;5114911;22;20050;-71
2023/12/11 07:41:05;;;;;;;28.17;4.13;;;;;;;;;;5058782;28;20159;-71
2023/12/11 07:43:31;;;;;;;29.33;4.13;;;;;;;;;;5055100;28;20082;-71
2023/12/11 07:45:57;;;;;;;26.85;3.58;;;;;;;;;;5056765;28;20036;-71
2023/12/11 07:48:23;;;;;;;26.25;4.30;;;;;;;;;;5079172;28;20123;-71
2023/12/11 07:50:49;;;;;;;25.10;4.30;;;;;;;;;;5077485;28;20490;-71
2023/12/11 07:53:15;;;;;;;22.25;4.55;;;;;;;;;;5055374;28;20115;-71
2023/12/11 07:55:41;;;;;;;25.27;4.22;;;;;;;;;;5059424;28;20040;-71
2023/12/11 07:58:07;;;;;;;24.38;3.70;;;;;;;;;;5091933;28;20386;-71
2023/12/11 08:00:33;;;;;;;22.15;3.35;;;;;;;;;;5088308;28;20098;-71
2023/12/11 08:02:59;;;;;;;22.67;4.00;;;;;;;;;;5068605;28;20491;-71
2023/12/11 08:05:25;;;;;;;26.55;4.85;;;;;;;;;;5074848;28;20033;-71
2023/12/11 08:07:51;;;;;;;16.30;3.58;;;;;;;;;;5083816;28;20036;-71
2023/12/11 08:10:17;;;;;;;20.48;3.80;;;;;;;;;;5072645;28;20044;-71
2023/12/11 08:12:43;;;;;;;16.60;3.35;;;;;;;;;;5081009;28;20037;-71
2023/12/11 08:15:09;;;;;;;21.38;3.33;;;;;;;;;;5090717;28;20032;-71
2023/12/11 08:17:35;;;;;;;17.73;3.38;;;;;;;;;;5058584;28;20398;-71
2023/12/11 08:20:01;;;;;;;20.23;3.25;;;;;;;;;;5070299;28;20040;-71
2023/12/11 08:22:27;;;;;;;16.25;2.92;;;;;;;;;;5079573;28;20037;-71
2023/12/11 08:24:54;;;;;;;10.25;2.60;;;;;;;;;;5076253;28;20038;-71
2023/12/11 08:27:21;;;;;;;12.35;2.90;;;;;;;;;;5057618;28;20044;-71
2023/12/11 08:29:46;;;;;;;12.25;2.50;;;;;;;;;;5076687;28;20036;-71
2023/12/11 08:32:12;;;;;;;13.88;2.88;;;;;;;;;;5087053;28;20493;-72
2023/12/11 08:34:38;;;;;;;12.50;3.00;;;;;;;;;;5059028;28;20072;-71
2023/12/11 08:37:04;;;;;;;15.43;2.92;;;;;;;;;;5055883;28;20040;-72
2023/12/11 08:39:30;;;;;;;12.68;2.42;;;;;;;;;;5066697;28;20052;-72
2023/12/11 08:41:56;;;;;;;10.05;2.13;;;;;;;;;;5081657;28;20036;-71
2023/12/11 08:44:22;;;;;;;14.98;2.88;;;;;;;;;;5082344;28;20028;-71
2023/12/11 08:46:48;;;;;;;12.02;2.20;;;;;;;;;;5068973;28;20046;-72
2023/12/11 08:49:14;;;;;;;13.65;2.40;;;;;;;;;;5056526;28;20486;-72
2023/12/11 08:51:42;;;;;;;9.10;2.13;;;;;;;;;;5062604;28;20083;-72
2023/12/11 08:54:08;;;;;;;7.43;1.75;;;;;;;;;;5050420;28;20051;-72
2023/12/11 08:56:34;;;;;;;4.70;1.50;;;;;;;;;;5090264;28;20052;-71
2023/12/11 08:59:00;;;;;;;6.70;1.55;;;;;;;;;;5055474;28;20414;-71
2023/12/11 09:01:26;;;;;;;8.18;1.38;;;;;;;;;;5064043;28;20044;-71
2023/12/11 09:03:52;;;;;;;5.30;1.30;;;;;;;;;;5052714;28;20094;-71
2023/12/11 09:06:18;;;;;;;3.95;1.50;;;;;;;;;;5084345;28;20493;-71
2023/12/11 09:08:44;;;;;;;5.68;1.60;;;;;;;;;;5089454;28;20063;-71
2023/12/11 09:11:10;;;;;;;4.25;1.50;;;;;;;;;;5070252;28;20104;-71
2023/12/11 09:13:37;;;;;;;6.93;1.35;;;;;;;;;;5065612;28;20040;-71
2023/12/11 09:16:03;;;;;;;5.72;1.58;;;;;;;;;;5077550;28;20040;-71
2023/12/11 09:18:29;;;;;;;9.25;1.70;;;;;;;;;;5074987;28;20117;-71
2023/12/11 09:20:55;;;;;;;13.85;2.75;;;;;;;;;;5060794;28;20127;-71
2023/12/11 09:23:21;;;;;;;12.50;3.00;;;;;;;;;;5087495;28;20035;-71
2023/12/11 09:25:47;;;;;;;17.25;3.35;;;;;;;;;;5085698;28;20035;-71
2023/12/11 09:28:14;;;;;;;16.30;3.00;;;;;;;;;;5065295;28;20402;-71
2023/12/11 09:30:40;;;;;;;15.15;3.75;;;;;;;;;;5067850;28;20427;-72
2023/12/11 09:33:06;;;;;;;20.05;3.85;;;;;;;;;;5086588;28;20041;-71
2023/12/11 09:35:32;;;;;;;19.63;3.20;;;;;;;;;;5058378;28;20040;-71
2023/12/11 09:37:58;;;;;;;18.60;3.58;;;;;;;;;;5075393;28;20048;-71
2023/12/11 09:40:24;;;;;;;18.20;3.80;;;;;;;;;;5061730;28;20400;-71
2023/12/11 09:42:51;;;;;;;21.40;4.20;;;;;;;;;;5087011;28;20046;-71
2023/12/11 09:45:19;;;;;;;14.48;3.15;;;;;;;;;;5086764;28;20089;-71
2023/12/11 09:47:49;;;;;;;18.55;3.70;;;;;;;;;;5089429;28;20036;-71
2023/12/11 09:50:16;;;;;;;22.60;4.50;;;;;;;;;;5077544;28;20398;-72
2023/12/11 09:52:42;;;;;;;16.38;3.47;;;;;;;;;;5082356;28;20035;-71
2023/12/11 09:55:08;;;;;;;26.08;4.90;;;;;;;;;;5089396;28;20092;-71
2023/12/11 09:57:34;;;;;;;19.88;3.50;;;;;;;;;;5080907;28;20119;-71
2023/12/11 10:00:01;;;;;;;16.90;3.13;;;;;;;;;;5060253;28;20374;-71
2023/12/11 10:02:27;;;;;;;14.80;3.05;;;;;;;;;;5087834;28;20656;-71
2023/12/11 10:05:09;;;;;;;12.77;3.20;;;;;;;;;;5079109;28;20048;-70
2023/12/11 10:07:39;;;;;;;12.98;2.70;;;;;;;;;;5081286;28;20040;-70
2023/12/11 10:10:27;;;;;;;18.70;2.55;;;;;;;;;;5090204;28;20525;-70
2023/12/11 10:12:56;;;;;;;14.77;2.78;;;;;;;;;;5074177;28;20158;-72
2023/12/11 10:15:23;;;;;;;15.75;3.00;;;;;;;;;;5083048;28;20040;-71
2023/12/11 10:18:08;;;;;;;20.33;3.05;;;;;;;;;;5062484;28;20036;-72
2023/12/11 10:20:34;;;;;;;13.27;3.00;;;;;;;;;;5053536;28;20040;-72
2023/12/11 10:23:14;;;;;;;13.48;2.88;;;;;;;;;;5073542;28;20047;-72
2023/12/11 10:25:41;;;;;;;18.60;2.33;;;;;;;;;;5074702;28;20059;-72
2023/12/11 10:28:09;;;;;;;14.02;2.70;;;;;;;;;;5081501;28;20379;-72
2023/12/11 10:30:53;;;;;;;13.13;2.45;;;;;;;;;;5083104;28;20074;-71
2023/12/11 10:33:20;;;;;;;16.05;3.03;;;;;;;;;;5080820;28;20048;-72
2023/12/11 10:35:46;;;;;;;16.90;2.83;;;;;;;;;;5081564;28;20044;-72
2023/12/11 10:38:32;;;;;;;16.33;2.42;;;;;;;;;;5089755;28;20036;-72
2023/12/11 10:40:58;;;;;;;15.83;2.63;;;;;;;;;;5086856;28;20556;-72
2023/12/11 10:43:24;;;;;;;18.85;2.70;;;;;;;;;;5084430;28;20032;-72
2023/12/11 10:45:50;;;;;;;15.00;2.65;;;;;;;;;;5082803;28;20036;-72
2023/12/11 10:48:17;;;;;;;20.75;2.80;;;;;;;;;;5083195;28;20056;-72
2023/12/11 10:50:43;;;;;;;16.48;2.58;;;;;;;;;;5075963;28;20063;-72
2023/12/11 10:53:10;;;;;;;17.40;2.72;;;;;;;;;;5082967;28;20513;-72
2023/12/11 10:55:39;;;;;;;15.68;2.55;;;;;;;;;;5076051;28;20052;-72
2023/12/11 10:58:08;;;;;;;19.15;3.28;;;;;;;;;;5088172;28;20036;-72
2023/12/11 11:00:34;;;;;;;13.20;2.35;;;;;;;;;;5084238;28;20044;-72
2023/12/11 11:03:02;;;;;;;21.58;3.78;;;;;;;;;;5080732;28;20101;-72
2023/12/11 11:05:29;;;;;;;18.15;2.75;;;;;;;;;;5078029;28;20047;-72
2023/12/11 11:07:57;;;;;;;13.43;2.33;;;;;;;;;;5078187;28;20029;-72
2023/12/11 11:10:25;;;;;;;13.65;2.38;;;;;;;;;;5070079;28;20368;-72
2023/12/11 11:12:54;;;;;;;16.45;2.42;;;;;;;;;;5082250;28;20101;-72
2023/12/11 11:15:21;;;;;;;12.68;2.45;;;;;;;;;;5085800;28;20055;-71
2023/12/11 11:17:58;;;;;;;15.13;2.40;;;;;;;;;;5082941;28;20040;-71
2023/12/11 11:20:24;;;;;;;16.05;2.67;;;;;;;;;;5072716;28;20045;-72
2023/12/11 11:22:50;;;;;;;13.13;2.30;;;;;;;;;;5068290;28;20051;-72
2023/12/11 11:25:29;;;;;;;15.52;2.70;;;;;;;;;;5078796;28;20036;-71
2023/12/11 11:27:55;;;;;;;15.45;2.30;;;;;;;;;;5076681;28;20059;-72
2023/12/11 11:30:40;;;;;;;10.38;1.90;;;;;;;;;;5086293;28;20490;-71
2023/12/11 11:33:07;;;;;;;18.58;3.20;;;;;;;;;;5077453;28;20087;-71
2023/12/11 11:35:52;;;;;;;15.45;2.63;;;;;;;;;;5087548;28;20093;-71
2023/12/11 11:38:20;;;;;;;16.77;2.92;;;;;;;;;;5070728;28;20405;-72
2023/12/11 11:40:48;;;;;;;14.18;3.00;;;;;;;;;;5088980;28;20040;-71
2023/12/11 11:43:14;;;;;;;12.82;2.13;;;;;;;;;;5069492;28;20055;-71
2023/12/11 11:45:40;;;;;;;12.93;2.42;;;;;;;;;;5082947;28;20036;-71
2023/12/11 11:48:06;;;;;;;14.77;2.80;;;;;;;;;;5086304;28;20041;-71
2023/12/11 11:50:33;;;;;;;21.88;3.10;;;;;;;;;;5080924;28;20405;-72
2023/12/11 11:53:00;;;;;;;11.10;2.92;;;;;;;;;;5062391;28;20052;-71
2023/12/11 11:55:27;;;;;;;20.33;3.40;;;;;;;;;;5086704;28;20389;-71
2023/12/11 11:57:54;;;;;;;18.50;3.53;;;;;;;;;;5076757;28;20029;-72
2023/12/11 12:00:23;;;;;;;13.82;3.60;;;;;;;;;;5077825;28;20047;-72
2023/12/11 12:03:10;;;;;;;18.33;3.88;;;;;;;;;;5091245;28;20048;-72
2023/12/11 12:05:36;;;;;;;23.35;4.20;;;;;;;;;;5089217;28;20401;-72
2023/12/11 12:08:06;;;;;;;20.80;4.28;;;;;;;;;;5082882;28;20036;-72
2023/12/11 12:10:32;;;;;;;19.67;3.50;;;;;;;;;;5093240;28;20047;-72
2023/12/11 12:12:59;;;;;;;17.38;3.30;;;;;;;;;;5090605;28;20036;-72
2023/12/11 12:15:25;;;;;;;14.27;3.67;;;;;;;;;;5087121;28;20062;-72
2023/12/11 12:17:52;;;;;;;17.33;3.42;;;;;;;;;;5074178;28;20084;-72
2023/12/11 12:20:18;;;;;;;20.70;3.53;;;;;;;;;;5087801;28;20123;-72
2023/12/11 12:22:57;;;;;;;14.63;2.60;;;;;;;;;;5092111;28;20047;-72
2023/12/11 12:25:23;;;;;;;11.85;2.17;;;;;;;;;;5080727;28;20097;-72
2023/12/11 12:27:50;;;;;;;15.07;2.95;;;;;;;;;;5077174;28;20033;-72
2023/12/11 12:30:16;;;;;;;14.68;2.67;;;;;;;;;;5092986;28;20036;-72
2023/12/11 12:32:42;;;;;;;12.38;2.20;;;;;;;;;;5074491;28;20039;-72
2023/12/11 12:35:09;;;;;;;13.82;2.53;;;;;;;;;;5089119;28;20040;-72
2023/12/11 12:37:35;;;;;;;13.90;2.63;;;;;;;;;;5092699;28;20517;-72
2023/12/11 12:40:05;;;;;;;12.25;2.17;;;;;;;;;;5092259;28;20039;-72
2023/12/11 12:42:32;;;;;;;14.57;2.30;;;;;;;;;;5067789;28;20044;-72
2023/12/11 12:44:58;;;;;;;14.32;2.45;;;;;;;;;;5074106;28;20040;-72
2023/12/11 12:47:24;;;;;;;10.23;1.90;;;;;;;;;;5092280;28;20089;-72
2023/12/11 12:49:50;;;;;;;13.82;2.55;;;;;;;;;;5082833;28;20033;-72
2023/12/11 12:52:23;;;;;;;12.18;2.00;;;;;;;;;;5079885;28;20238;-72
2023/12/11 12:54:49;;;;;;;7.95;1.50;;;;;;;;;;5092320;28;20510;-72
2023/12/11 12:57:16;;;;;;;12.88;2.60;;;;;;;;;;5092535;28;20054;-72
2023/12/11 12:59:42;;;;;;;10.00;1.77;;;;;;;;;;5066964;28;20464;-72
2023/12/11 13:02:13;;;;;;;9.25;1.48;;;;;;;;;;5092125;28;20162;-72
2023/12/11 13:04:52;;;;;;;7.95;1.52;;;;;;;;;;5078511;28;20032;-72
2023/12/11 13:07:19;;;;;;;9.23;1.55;;;;;;;;;;5078576;28;20036;-72
2023/12/11 13:09:45;;;;;;;6.05;1.50;;;;;;;;;;5092476;28;20517;-72
2023/12/11 13:12:11;;;;;;;7.88;0.98;;;;;;;;;;5074265;28;20070;-72
2023/12/11 13:14:37;;;;;;;10.25;1.60;;;;;;;;;;5091605;28;20040;-72
2023/12/11 13:17:03;;;;;;;6.97;1.42;;;;;;;;;;5090872;28;20040;-72
2023/12/11 13:19:29;;;;;;;5.00;1.00;;;;;;;;;;5086475;28;20067;-72
2023/12/11 13:21:56;;;;;;;7.38;1.05;;;;;;;;;;5069215;28;20044;-72
2023/12/11 13:24:22;;;;;;;6.15;1.30;;;;;;;;;;5084314;28;20040;-72
2023/12/11 13:26:48;;;;;;;7.00;1.27;;;;;;;;;;5092225;28;20111;-72
2023/12/11 13:29:14;;;;;;;6.97;1.17;;;;;;;;;;5076747;28;20141;-72
2023/12/11 13:31:40;;;;;;;6.97;1.02;;;;;;;;;;5086687;28;20036;-72
2023/12/11 13:34:06;;;;;;;7.45;1.20;;;;;;;;;;5082386;28;20063;-72
2023/12/11 13:36:32;;;;;;;5.95;1.00;;;;;;;;;;5078719;28;20044;-72
2023/12/11 13:38:58;;;;;;;6.15;1.25;;;;;;;;;;5106808;22;20419;-67
2023/12/11 13:41:24;;;;;;;7.00;1.40;;;;;;;;;;5093218;28;20067;-63
2023/12/11 13:43:50;;;;;;;8.18;1.25;;;;;;;;;;5092487;28;20405;-66
2023/12/11 13:46:16;;;;;;;7.10;1.20;;;;;;;;;;5092825;28;20071;-62
2023/12/11 13:48:42;;;;;;;10.15;1.38;;;;;;;;;;5098221;22;20047;-64
2023/12/11 13:51:08;;;;;;;4.28;1.10;;;;;;;;;;5060259;28;20045;-64
2023/12/11 13:53:35;;;;;;;7.20;1.00;;;;;;;;;;5064593;28;20048;-63
2023/12/11 13:56:01;;;;;;;7.25;1.02;;;;;;;;;;5067616;28;20047;-63
2023/12/11 13:58:28;;;;;;;2.33;0.85;;;;;;;;;;5063943;28;20063;-64
2023/12/11 14:00:54;;;;;;;5.10;0.90;;;;;;;;;;5058571;28;20041;-64
2023/12/11 14:03:20;;;;;;;4.70;0.95;;;;;;;;;;5060159;28;20045;-63
2023/12/11 14:05:47;;;;;;;6.28;1.33;;;;;;;;;;5062716;28;20032;-63
2023/12/11 14:08:13;;;;;;;7.43;1.50;;;;;;;;;;5052233;28;20048;-63
2023/12/11 14:10:41;;;;;;;8.25;0.93;;;;;;;;;;5066624;28;20086;-63
2023/12/11 14:13:12;;;;;;;3.78;0.90;;;;;;;;;;5063434;28;20052;-63
2023/12/11 14:15:38;;;;;;;6.55;0.93;;;;;;;;;;5064049;28;20049;-64
2023/12/11 14:18:04;;;;;;;3.83;0.90;;;;;;;;;;5063496;28;20052;-64
2023/12/11 14:20:30;;;;;;;5.13;0.73;;;;;;;;;;5060737;28;20043;-64
2023/12/11 14:22:56;;;;;;;4.68;0.82;;;;;;;;;;5053431;28;20045;-64
2023/12/11 14:25:24;;;;;;;7.40;1.30;;;;;;;;;;5055764;28;20111;-64
2023/12/11 14:27:50;;;;;;;4.30;0.82;;;;;;;;;;5059386;28;20381;-64